Groton New London Airport
KGON : now visible

Aeroporto :











RITROVATECI SU...

 
LOGIN :

Iscrizione | Disclaimer

   EN    FR    IT 

 









Sommario :    VFR   VFR Marginale   IFR   IFR Intensivo   IFR Molto Intensivo
Visibilità : 
Base nubi : 
>= 8 km
>= 3000ft
5 / 8 km
1000 / 3000 ft
1500m / 5 km
500 / 1000 ft
800 / 1500m
200 / 500 ft
< 800m
< 200 ft
Simboli :   Temporali  Nebbia  Neve Forte  Precipitazioni Forti  Vento > 20 kt






- Altitudine del aeroporto : 9 ft
- Codice IATA : GON


KGON - Groton New London

ULTIMO METAR :
  • 040156Z 02016G29KT 10SM OVC021 08/06 A2979 RMK AO2 PK WND 04032/0057 SLP088 T00780061

METARs OBSOLETI :
  • 040056Z 03017G27KT 10SM BKN021 OVC026 08/06 A2977 RMK AO2 PK WND 01032/0005 SLP080 T00830056
  • 032356Z 02018G31KT 10SM OVC026 08/05 A2973 RMK AO2 PK WND 04037/2258 SLP068 T00830050 10094 20083 53037

TAF KGON
Valido dal 04 a 03 ore il 05 a 00 ore UTC


040231Z 0403/0424 02018G25KT P6SM OVC020
FM040800 02015G22KT P6SM OVC020
FM041800 05012KT P6SM BKN035



MetMap, La meteo Aeronautica in un colpo d'occhio ! - Copyright ORBIFLY Dicembre 2007 - Disclaimer

ORBIFLY MET'MAP TEAM :

Programmazione e sviluppo : Alexandra Zaïnal
Concezione : Baudouin d'Aumeries
Aiuto per la programmazione : Marc-Olivier Méhu
Supporto tecnico e logistico : Manuel Goepfert
Aiuto per la traduzione : Arnaldo La Scala

Contatto : metmap@orbifly.com




FONTI E CREDITI :

   NOAA       Earth
Advisory